createdAt,value
2023-03-21T00:00:47.906Z,21.05
2023-03-21T00:03:16.258Z,19.52
2023-03-21T00:05:49.693Z,19.15
2023-03-21T00:08:16.599Z,21.07
2023-03-21T00:10:43.987Z,19.67
2023-03-21T00:13:15.871Z,18.96
2023-03-21T00:18:47.173Z,19.98
2023-03-21T00:24:03.471Z,19.67
2023-03-21T00:26:30.395Z,19.98
2023-03-21T00:28:57.451Z,20.57
2023-03-21T00:31:24.097Z,19.90
2023-03-21T00:33:50.978Z,18.97
2023-03-21T00:36:17.849Z,19.25
2023-03-21T00:38:44.507Z,20.20
2023-03-21T00:41:25.819Z,19.08
2023-03-21T00:43:58.376Z,18.75
2023-03-21T00:46:27.626Z,18.30
2023-03-21T00:48:56.952Z,17.51
2023-03-21T00:51:27.149Z,17.25
2023-03-21T00:53:58.563Z,17.43
2023-03-21T00:56:25.474Z,17.94
2023-03-21T00:58:52.259Z,16.05
2023-03-21T01:01:19.541Z,16.15
2023-03-21T01:03:50.784Z,15.96
2023-03-21T01:06:19.528Z,17.81
2023-03-21T01:08:52.637Z,19.20
2023-03-21T01:11:22.776Z,19.33
2023-03-21T01:13:56.254Z,21.15
2023-03-21T01:16:26.950Z,22.41
2023-03-21T01:18:54.138Z,24.02
2023-03-21T01:21:20.852Z,22.39
2023-03-21T01:23:47.837Z,22.79
2023-03-21T01:26:15.403Z,22.57
2023-03-21T01:28:43.841Z,22.75
2023-03-21T01:31:14.013Z,24.46
2023-03-21T01:33:40.959Z,24.64
2023-03-21T01:36:13.160Z,22.84
2023-03-21T01:38:41.668Z,22.34
2023-03-21T01:41:20.136Z,25.21
2023-03-21T01:43:47.582Z,24.63
2023-03-21T01:46:51.544Z,26.53
2023-03-21T01:49:47.804Z,27.34
2023-03-21T01:52:35.340Z,27.62
2023-03-21T01:55:07.599Z,27.88
2023-03-21T01:57:49.453Z,28.34
2023-03-21T02:00:29.505Z,28.75
2023-03-21T02:03:11.358Z,32.32
2023-03-21T02:06:02.044Z,31.87
2023-03-21T02:08:39.089Z,31.61
2023-03-21T02:11:07.169Z,31.58
2023-03-21T02:13:33.864Z,31.37
2023-03-21T02:16:20.769Z,31.21
2023-03-21T02:19:32.876Z,31.02
2023-03-21T02:22:38.098Z,30.06
2023-03-21T02:25:42.065Z,31.42
2023-03-21T02:28:11.736Z,31.96
2023-03-21T02:30:59.218Z,30.81
2023-03-21T02:33:42.756Z,32.56
2023-03-21T02:36:47.142Z,29.71
2023-03-21T02:39:19.682Z,29.64
2023-03-21T02:42:18.414Z,30.63
2023-03-21T02:44:50.935Z,30.04
2023-03-21T02:47:47.529Z,31.69
2023-03-21T02:50:23.753Z,29.93
2023-03-21T02:52:54.043Z,32.08
2023-03-21T02:55:26.476Z,30.87
2023-03-21T02:57:56.597Z,31.59
2023-03-21T03:00:27.836Z,31.11
2023-03-21T03:03:07.883Z,30.68
2023-03-21T03:05:44.122Z,28.91
2023-03-21T03:08:42.911Z,30.62
2023-03-21T03:11:28.755Z,30.06
2023-03-21T03:17:20.409Z,26.97
2023-03-21T03:19:52.657Z,29.32
2023-03-21T03:22:40.561Z,26.22
2023-03-21T03:25:24.981Z,27.50
2023-03-21T03:28:04.537Z,26.60
2023-03-21T03:30:41.432Z,25.60
2023-03-21T03:33:17.167Z,28.11
2023-03-21T03:35:53.022Z,27.91
2023-03-21T03:38:32.198Z,29.24
2023-03-21T03:41:11.981Z,28.17
2023-03-21T03:43:48.762Z,29.10
2023-03-21T03:46:26.415Z,28.25
2023-03-21T03:49:00.248Z,28.75
2023-03-21T03:51:42.653Z,30.08
2023-03-21T03:54:17.594Z,29.07
2023-03-21T03:56:44.825Z,29.53
2023-03-21T03:59:11.665Z,28.71
2023-03-21T04:01:38.276Z,28.93
2023-03-21T04:04:13.038Z,29.69
2023-03-21T04:06:40.095Z,30.12
2023-03-21T04:09:19.301Z,29.68
2023-03-21T04:11:48.174Z,29.57
2023-03-21T04:14:15.281Z,29.65
2023-03-21T04:16:42.135Z,29.87
2023-03-21T04:19:09.331Z,30.49
2023-03-21T04:21:36.604Z,30.57
2023-03-21T04:24:03.608Z,30.66
2023-03-21T04:26:33.028Z,29.74
2023-03-21T04:29:03.213Z,29.42
2023-03-21T04:31:31.313Z,30.05
2023-03-21T04:33:59.488Z,29.39
2023-03-21T04:36:39.088Z,29.76
2023-03-21T04:39:12.298Z,30.99
2023-03-21T04:41:44.546Z,30.00
2023-03-21T04:44:13.457Z,30.06
2023-03-21T04:46:40.963Z,30.81
2023-03-21T04:49:08.036Z,29.95
2023-03-21T04:51:36.008Z,29.06
2023-03-21T04:54:02.937Z,29.98
2023-03-21T04:56:34.071Z,30.78
2023-03-21T04:59:06.934Z,30.31
2023-03-21T05:01:33.976Z,30.27
2023-03-21T05:04:02.689Z,27.77
2023-03-21T05:06:30.474Z,27.51
2023-03-21T05:09:05.284Z,25.52
2023-03-21T05:11:33.404Z,25.62
2023-03-21T05:14:00.127Z,22.18
2023-03-21T05:16:30.543Z,22.42
2023-03-21T05:18:59.103Z,23.18
2023-03-21T05:21:29.462Z,22.15
2023-03-21T05:23:58.257Z,22.05
2023-03-21T05:26:25.677Z,22.03
2023-03-21T05:28:52.511Z,22.06
2023-03-21T05:31:20.351Z,22.94
2023-03-21T05:33:48.366Z,22.84
2023-03-21T05:36:15.977Z,22.25
2023-03-21T05:38:46.540Z,21.57
2023-03-21T05:41:15.020Z,20.58
2023-03-21T05:43:41.936Z,21.37
2023-03-21T05:46:09.967Z,20.28
2023-03-21T05:48:36.652Z,19.67
2023-03-21T05:51:04.131Z,20.02
2023-03-21T05:53:30.860Z,20.35
2023-03-21T05:55:58.117Z,19.96
2023-03-21T05:58:24.712Z,19.75
2023-03-21T06:00:51.391Z,18.56
2023-03-21T06:03:18.157Z,19.26
2023-03-21T06:05:44.725Z,19.15
2023-03-21T06:08:11.335Z,19.02
2023-03-21T06:10:37.985Z,19.62
2023-03-21T06:13:04.798Z,19.12
2023-03-21T06:15:31.631Z,19.28
2023-03-21T06:17:58.234Z,19.10
2023-03-21T06:20:24.883Z,19.34
2023-03-21T06:22:51.468Z,19.18
2023-03-21T06:25:18.214Z,18.33
2023-03-21T06:27:44.906Z,18.11
2023-03-21T06:30:12.276Z,18.30
2023-03-21T06:32:39.114Z,18.32
2023-03-21T06:35:06.563Z,17.63
2023-03-21T06:37:33.168Z,17.64
2023-03-21T06:39:59.737Z,17.47
2023-03-21T06:42:26.457Z,17.22
2023-03-21T06:44:53.054Z,17.22
2023-03-21T06:47:19.688Z,16.85
2023-03-21T06:49:46.358Z,16.55
2023-03-21T06:52:13.151Z,15.88
2023-03-21T06:54:39.900Z,15.28
2023-03-21T06:57:06.587Z,15.51
2023-03-21T06:59:33.375Z,15.78
2023-03-21T07:01:59.964Z,15.75
2023-03-21T07:04:27.163Z,15.63
2023-03-21T07:06:54.108Z,15.38
2023-03-21T07:09:24.533Z,16.41
2023-03-21T07:11:53.496Z,16.04
2023-03-21T07:14:20.516Z,16.23
2023-03-21T07:16:47.200Z,15.94
2023-03-21T07:19:14.318Z,14.30
2023-03-21T07:21:40.931Z,15.04
2023-03-21T07:24:07.895Z,15.69
2023-03-21T07:26:34.535Z,15.55
2023-03-21T07:29:01.121Z,14.66
2023-03-21T07:31:28.022Z,14.55
2023-03-21T07:33:54.722Z,15.12
2023-03-21T07:36:21.397Z,14.07
2023-03-21T07:38:48.059Z,15.15
2023-03-21T07:43:42.803Z,14.80
2023-03-21T07:46:09.675Z,13.83
2023-03-21T07:48:37.210Z,13.05
2023-03-21T07:51:04.169Z,13.91
2023-03-21T07:53:31.074Z,13.44
2023-03-21T07:55:57.682Z,13.38
2023-03-21T07:58:25.606Z,13.40
2023-03-21T08:00:53.301Z,14.14
2023-03-21T08:03:20.084Z,14.58
2023-03-21T08:05:47.042Z,13.84
2023-03-21T08:08:13.689Z,13.51
2023-03-21T08:10:43.878Z,13.14
2023-03-21T08:13:10.486Z,13.50
2023-03-21T08:15:37.745Z,13.31
2023-03-21T08:18:04.575Z,13.32
2023-03-21T08:20:31.397Z,13.47
2023-03-21T08:22:58.023Z,13.03
2023-03-21T08:25:24.703Z,13.29
2023-03-21T08:27:52.250Z,12.37
2023-03-21T08:30:21.705Z,13.06
2023-03-21T08:32:49.215Z,12.61
2023-03-21T08:35:18.623Z,12.43
2023-03-21T08:37:45.262Z,12.88
2023-03-21T08:40:16.063Z,12.63
2023-03-21T08:42:43.876Z,13.01
2023-03-21T08:45:12.158Z,12.51
2023-03-21T08:47:39.409Z,12.66
2023-03-21T08:50:08.314Z,12.82
2023-03-21T08:52:35.629Z,11.93
2023-03-21T08:55:02.676Z,11.39
2023-03-21T08:57:30.115Z,11.61
2023-03-21T08:59:56.956Z,10.59
2023-03-21T09:02:23.625Z,10.94
2023-03-21T09:04:53.075Z,11.12
2023-03-21T09:07:20.164Z,10.76
2023-03-21T09:09:50.900Z,10.33
2023-03-21T09:12:24.808Z,11.23
2023-03-21T09:14:53.258Z,11.27
2023-03-21T09:17:21.271Z,10.79
2023-03-21T09:19:50.378Z,10.49
2023-03-21T09:22:21.328Z,11.10
2023-03-21T09:24:49.165Z,9.76
2023-03-21T09:27:18.116Z,9.35
2023-03-21T09:29:45.038Z,9.68
2023-03-21T09:32:13.378Z,9.65
2023-03-21T09:34:41.295Z,9.13
2023-03-21T09:37:13.241Z,9.45
2023-03-21T09:39:44.806Z,9.01
2023-03-21T09:42:17.796Z,9.48
2023-03-21T09:45:06.115Z,9.77
2023-03-21T09:47:49.424Z,9.65
2023-03-21T09:50:20.580Z,10.90
2023-03-21T09:52:54.362Z,10.81
2023-03-21T09:55:26.385Z,10.90
2023-03-21T09:58:11.108Z,11.55
2023-03-21T10:00:46.035Z,11.78
2023-03-21T10:03:31.518Z,10.91
2023-03-21T10:06:01.216Z,11.47
2023-03-21T10:08:34.148Z,10.67
2023-03-21T10:11:06.653Z,11.33
2023-03-21T10:13:38.865Z,11.02
2023-03-21T10:16:19.658Z,11.79
2023-03-21T10:18:47.239Z,11.26
2023-03-21T10:21:51.302Z,11.14
2023-03-21T10:24:15.715Z,11.19
2023-03-21T10:26:45.004Z,10.83
2023-03-21T10:29:16.767Z,10.68
2023-03-21T10:31:46.342Z,10.62
2023-03-21T10:34:37.569Z,10.96
2023-03-21T10:37:05.849Z,10.15
2023-03-21T10:39:42.034Z,10.57
2023-03-21T10:42:24.718Z,10.59
2023-03-21T10:44:54.305Z,10.32
2023-03-21T10:47:24.739Z,10.00
2023-03-21T10:50:08.823Z,10.07
2023-03-21T10:52:44.746Z,10.54
2023-03-21T10:55:29.137Z,10.11
2023-03-21T10:58:01.535Z,9.63
2023-03-21T11:00:35.356Z,9.12
2023-03-21T11:03:03.613Z,9.43
2023-03-21T11:05:41.182Z,9.59
2023-03-21T11:08:18.444Z,8.21
2023-03-21T11:10:55.347Z,7.95
2023-03-21T11:13:33.216Z,8.63
2023-03-21T11:16:11.201Z,8.87
2023-03-21T11:18:51.150Z,9.10
2023-03-21T11:21:19.063Z,8.80
2023-03-21T11:23:49.729Z,8.93
2023-03-21T11:26:26.608Z,8.40
2023-03-21T11:28:54.997Z,8.99
2023-03-21T11:31:24.953Z,9.56
2023-03-21T11:34:01.479Z,9.08
2023-03-21T11:36:39.025Z,8.73
2023-03-21T11:39:11.830Z,8.29
2023-03-21T11:41:42.082Z,8.26
2023-03-21T11:44:29.639Z,8.56
2023-03-21T11:46:56.521Z,8.23
2023-03-21T11:49:24.315Z,7.43
2023-03-21T11:52:07.521Z,9.10
2023-03-21T11:55:02.230Z,8.82
2023-03-21T11:57:47.841Z,9.22
2023-03-21T12:00:27.846Z,7.81
2023-03-21T12:03:48.282Z,9.13
2023-03-21T12:06:37.812Z,8.46
2023-03-21T12:09:27.472Z,7.90
2023-03-21T12:12:38.747Z,8.23
2023-03-21T12:15:22.234Z,8.64
2023-03-21T12:18:24.915Z,9.17
2023-03-21T12:21:24.308Z,8.91
2023-03-21T12:23:58.828Z,9.37
2023-03-21T12:26:32.377Z,9.31
2023-03-21T12:29:30.133Z,9.35
2023-03-21T12:31:59.436Z,9.22
2023-03-21T12:35:00.482Z,9.70
2023-03-21T12:37:47.854Z,9.87
2023-03-21T12:40:22.024Z,9.34
2023-03-21T12:43:13.150Z,10.01
2023-03-21T12:45:47.662Z,8.99
2023-03-21T12:48:36.316Z,9.55
2023-03-21T12:51:10.195Z,9.60
2023-03-21T12:53:54.774Z,9.67
2023-03-21T12:56:33.899Z,11.13
2023-03-21T12:59:16.704Z,11.66
2023-03-21T13:01:47.609Z,11.03
2023-03-21T13:04:20.288Z,10.55
2023-03-21T13:06:50.869Z,10.88
2023-03-21T13:09:37.755Z,9.98
2023-03-21T13:12:14.086Z,10.73
2023-03-21T13:15:12.452Z,10.74
2023-03-21T13:17:51.536Z,9.18
2023-03-21T13:20:29.349Z,10.17
2023-03-21T13:22:56.140Z,10.24
2023-03-21T13:25:25.529Z,11.06
2023-03-21T13:28:02.267Z,10.49
2023-03-21T13:30:32.293Z,10.42
2023-03-21T13:33:24.064Z,11.31
2023-03-21T13:36:07.245Z,10.88
2023-03-21T13:38:36.308Z,11.50
2023-03-21T13:41:14.113Z,11.54
2023-03-21T13:44:03.914Z,9.69
2023-03-21T13:46:35.833Z,10.34
2023-03-21T13:49:09.980Z,9.79
2023-03-21T13:51:36.572Z,11.78
2023-03-21T13:54:15.648Z,11.47
2023-03-21T13:56:45.819Z,10.75
2023-03-21T13:59:36.516Z,9.80
2023-03-21T14:02:12.754Z,9.91
2023-03-21T14:04:53.918Z,10.16
2023-03-21T14:07:33.306Z,10.56
2023-03-21T14:10:05.160Z,11.02
2023-03-21T14:12:42.301Z,10.92
2023-03-21T14:15:22.878Z,11.10
2023-03-21T14:18:15.809Z,11.03
2023-03-21T14:20:56.259Z,11.94
2023-03-21T14:23:23.710Z,11.28
2023-03-21T14:25:51.674Z,10.08
2023-03-21T14:28:24.354Z,11.88
2023-03-21T14:31:01.605Z,12.76
2023-03-21T14:33:40.147Z,11.84
2023-03-21T14:36:15.514Z,12.11
2023-03-21T14:38:42.496Z,12.66
2023-03-21T14:41:24.682Z,11.51
2023-03-21T14:44:14.116Z,11.17
2023-03-21T14:46:41.832Z,10.96
2023-03-21T14:49:29.838Z,11.88
2023-03-21T14:52:00.759Z,10.36
2023-03-21T14:54:28.587Z,11.75
2023-03-21T14:57:04.877Z,10.48
2023-03-21T14:59:38.190Z,10.87
2023-03-21T15:02:25.314Z,11.93
2023-03-21T15:04:56.444Z,12.09
2023-03-21T15:07:36.284Z,12.11
2023-03-21T15:10:17.936Z,12.00
2023-03-21T15:13:14.770Z,12.70
2023-03-21T15:15:42.950Z,11.25
2023-03-21T15:18:16.110Z,11.87
2023-03-21T15:20:42.958Z,12.21
2023-03-21T15:23:22.450Z,12.17
2023-03-21T15:25:50.533Z,12.62
2023-03-21T15:28:17.229Z,11.89
2023-03-21T15:30:54.236Z,12.07
2023-03-21T15:33:24.409Z,11.14
2023-03-21T15:35:55.507Z,12.30
2023-03-21T15:38:41.505Z,12.14
2023-03-21T15:41:20.276Z,12.41
2023-03-21T15:44:08.431Z,12.61
2023-03-21T15:46:42.196Z,12.23
2023-03-21T15:49:14.925Z,10.93
2023-03-21T15:51:56.842Z,11.76
2023-03-21T15:54:33.347Z,13.24
2023-03-21T15:57:15.892Z,12.82
2023-03-21T15:59:43.616Z,12.28
2023-03-21T16:02:23.889Z,12.25
2023-03-21T16:05:03.339Z,12.54
2023-03-21T16:07:34.333Z,12.44
2023-03-21T16:10:04.649Z,12.51
2023-03-21T16:12:31.349Z,12.18
2023-03-21T16:14:58.017Z,12.35
2023-03-21T16:17:35.537Z,12.96
2023-03-21T16:20:02.172Z,13.75
2023-03-21T16:22:30.085Z,13.04
2023-03-21T16:24:56.743Z,13.23
2023-03-21T16:27:23.332Z,12.66
2023-03-21T16:29:49.911Z,12.46
2023-03-21T16:32:18.130Z,13.84
2023-03-21T16:34:46.209Z,14.01
2023-03-21T16:37:15.939Z,13.33
2023-03-21T16:39:43.056Z,13.12
2023-03-21T16:42:11.958Z,12.62
2023-03-21T16:44:39.517Z,12.79
2023-03-21T16:47:15.631Z,12.67
2023-03-21T16:49:43.239Z,12.54
2023-03-21T16:52:12.037Z,11.90
2023-03-21T16:54:40.362Z,11.75
2023-03-21T16:57:14.744Z,10.36
2023-03-21T16:59:41.518Z,9.55
2023-03-21T17:02:16.533Z,8.47
2023-03-21T17:04:44.577Z,8.51
2023-03-21T17:07:16.413Z,8.60
2023-03-21T17:09:43.864Z,8.90
2023-03-21T17:12:13.676Z,9.42
2023-03-21T17:14:41.325Z,9.91
2023-03-21T17:17:16.188Z,9.31
2023-03-21T17:19:42.869Z,10.07
2023-03-21T17:22:12.503Z,10.28
2023-03-21T17:24:39.912Z,11.11
2023-03-21T17:27:08.498Z,11.24
2023-03-21T17:29:35.397Z,11.07
2023-03-21T17:32:02.014Z,11.87
2023-03-21T17:34:28.609Z,12.10
2023-03-21T17:36:55.477Z,12.07
2023-03-21T17:39:28.546Z,12.77
2023-03-21T17:41:56.850Z,11.77
2023-03-21T17:44:23.466Z,11.71
2023-03-21T17:46:51.923Z,12.32
2023-03-21T17:49:19.925Z,12.14
2023-03-21T17:51:47.037Z,12.23
2023-03-21T17:54:14.086Z,11.84
2023-03-21T17:56:42.095Z,11.69
2023-03-21T17:59:13.051Z,11.52
2023-03-21T18:01:40.069Z,10.88
2023-03-21T18:04:07.074Z,9.62
2023-03-21T18:06:35.172Z,9.54
2023-03-21T18:09:06.913Z,9.78
2023-03-21T18:11:33.938Z,9.65
2023-03-21T18:14:14.326Z,9.67
2023-03-21T18:16:42.384Z,9.16
2023-03-21T18:19:12.521Z,9.63
2023-03-21T18:21:40.756Z,9.80
2023-03-21T18:24:07.778Z,10.24
2023-03-21T18:26:34.385Z,9.29
2023-03-21T18:30:03.889Z,9.86
2023-03-21T18:32:04.322Z,10.05
2023-03-21T18:34:31.447Z,10.67
2023-03-21T18:36:58.155Z,9.26
2023-03-21T18:39:25.004Z,9.73
2023-03-21T18:41:52.586Z,10.94
2023-03-21T18:44:21.717Z,10.36
2023-03-21T18:46:50.625Z,10.68
2023-03-21T18:50:01.992Z,11.53
2023-03-21T18:52:06.459Z,11.31
2023-03-21T18:54:33.118Z,11.28
2023-03-21T18:59:47.626Z,11.06
2023-03-21T19:02:15.874Z,11.95
2023-03-21T19:04:43.453Z,12.25
2023-03-21T19:07:10.763Z,11.74
2023-03-21T19:10:15.935Z,12.37
2023-03-21T19:12:25.638Z,12.71
2023-03-21T19:14:52.214Z,12.60
2023-03-21T19:20:06.059Z,12.88
2023-03-21T19:22:32.726Z,13.17
2023-03-21T19:25:00.449Z,12.50
2023-03-21T19:27:27.595Z,12.45
2023-03-21T19:30:10.836Z,13.38
2023-03-21T19:32:40.611Z,13.45
2023-03-21T19:35:07.765Z,13.65
2023-03-21T19:37:36.276Z,12.57
2023-03-21T19:40:05.489Z,13.72
2023-03-21T19:42:32.492Z,13.97
2023-03-21T19:44:59.255Z,13.83
2023-03-21T19:47:26.342Z,13.36
2023-03-21T19:52:40.734Z,13.38
2023-03-21T19:55:08.342Z,13.65
2023-03-21T19:57:35.269Z,13.70
2023-03-21T20:00:02.344Z,12.61
2023-03-21T20:02:37.675Z,12.91
2023-03-21T20:05:07.813Z,12.95
2023-03-21T20:07:35.061Z,13.79
2023-03-21T20:10:01.719Z,13.25
2023-03-21T20:12:28.646Z,13.37
2023-03-21T20:15:10.460Z,12.91
2023-03-21T20:17:42.574Z,12.61
2023-03-21T20:20:10.214Z,13.01
2023-03-21T20:23:05.136Z,13.40
2023-03-21T20:25:24.324Z,13.94
2023-03-21T20:28:09.436Z,14.57
2023-03-21T20:30:38.258Z,14.91
2023-03-21T20:33:05.316Z,15.86
2023-03-21T20:36:22.849Z,16.75
2023-03-21T20:38:20.640Z,16.48
2023-03-21T20:40:48.056Z,15.51
2023-03-21T20:44:06.683Z,16.08
2023-03-21T20:46:03.941Z,15.50
2023-03-21T20:48:31.634Z,15.29
2023-03-21T20:51:41.306Z,14.31
2023-03-21T20:53:50.241Z,14.53
2023-03-21T20:56:17.487Z,12.98
2023-03-21T20:59:01.998Z,12.79
2023-03-21T21:01:31.467Z,12.27
2023-03-21T21:04:00.631Z,10.85
2023-03-21T21:06:28.611Z,10.36
2023-03-21T21:08:55.804Z,11.32
2023-03-21T21:14:09.796Z,10.10
2023-03-21T21:16:37.216Z,9.97
2023-03-21T21:19:03.880Z,9.25
2023-03-21T21:21:31.671Z,8.93
2023-03-21T21:23:58.547Z,9.11
2023-03-21T21:26:25.286Z,9.05
2023-03-21T21:28:53.175Z,9.55
2023-03-21T21:31:20.468Z,9.23
2023-03-21T21:33:50.087Z,9.74
2023-03-21T21:36:17.001Z,10.12
2023-03-21T21:38:43.678Z,10.74
2023-03-21T21:41:20.683Z,10.16
2023-03-21T21:43:47.804Z,11.31
2023-03-21T21:46:14.476Z,11.29
2023-03-21T21:48:41.454Z,11.30
2023-03-21T21:51:08.127Z,13.19
2023-03-21T21:53:36.479Z,12.55
2023-03-21T21:56:06.186Z,12.60
2023-03-21T21:58:48.659Z,11.24
2023-03-21T22:01:15.326Z,10.57
2023-03-21T22:03:45.850Z,9.86
2023-03-21T22:06:12.553Z,9.70
2023-03-21T22:08:39.215Z,9.82
2023-03-21T22:11:06.597Z,9.44
2023-03-21T22:13:33.169Z,7.57
2023-03-21T22:15:59.865Z,8.05
2023-03-21T22:18:26.532Z,8.16
2023-03-21T22:20:53.316Z,6.83
2023-03-21T22:23:19.983Z,6.89
2023-03-21T22:25:51.383Z,7.09
2023-03-21T22:28:21.968Z,5.95
2023-03-21T22:30:49.457Z,6.09
2023-03-21T22:33:16.074Z,5.33
2023-03-21T22:35:42.715Z,5.32
2023-03-21T22:38:09.448Z,4.84
2023-03-21T22:40:36.321Z,5.25
2023-03-21T22:43:03.215Z,5.15
2023-03-21T22:45:29.811Z,5.37
2023-03-21T22:47:56.475Z,4.84
2023-03-21T22:50:23.066Z,4.69
2023-03-21T22:52:49.695Z,4.96
2023-03-21T22:55:16.381Z,4.21
2023-03-21T22:57:42.974Z,4.05
2023-03-21T23:00:13.849Z,4.39
2023-03-21T23:02:41.717Z,4.08
2023-03-21T23:05:09.768Z,4.29
2023-03-21T23:07:36.482Z,4.59
2023-03-21T23:10:05.096Z,4.52
2023-03-21T23:12:32.103Z,4.31
2023-03-21T23:14:58.719Z,4.26
2023-03-21T23:17:26.637Z,3.85
2023-03-21T23:19:53.289Z,3.80
2023-03-21T23:22:19.889Z,4.01
2023-03-21T23:24:47.020Z,3.92
2023-03-21T23:27:14.309Z,3.77
2023-03-21T23:29:40.962Z,3.88
2023-03-21T23:32:07.567Z,4.03
2023-03-21T23:34:34.221Z,3.60
2023-03-21T23:37:00.991Z,4.05
2023-03-21T23:39:28.268Z,3.23
2023-03-21T23:41:55.008Z,3.51
2023-03-21T23:44:21.642Z,3.73
2023-03-21T23:46:48.233Z,3.68
2023-03-21T23:49:15.483Z,3.44
2023-03-21T23:51:42.289Z,3.70
2023-03-21T23:54:09.644Z,3.77
2023-03-21T23:56:36.479Z,3.77
2023-03-21T23:59:03.687Z,3.95
